Terminal Aerodrome Forecast
Issued by NWS

Current Version | Previous Version | Text Only | Print | Product List | Glossary Off
Versions: 1 2 3 4 5 6 7 8 9 10 11 12 13 14 15 16 17 18 19 20 21 22 23 24 25 26 27 28 29

000
FTUS41 KRLX 182100 AAA
TAFCKB
TAF AMD
KCKB 182135Z 1822/1918 VRB03KT P6SM BKN040 BKN080
      TEMPO 1822/1823 5SM -SHRA
     FM190400 00000KT 3SM BR SCT002 BKN040
     FM190500 00000KT 2SM BR BKN004
     FM191100 00000KT 4SM BR BKN010
     FM191600 00000KT 6SM BR BKN040=

USA.gov is the U.S. government's official web portal to all federal, state and local government web resources and services.